Time;durP1;ratioP1;P1;durP2;ratioP2;P2;SDS_P1;SDS_P2;PMS_P1;PMS_P2;Temp;Humidity;BMP_temperature;BMP_pressure;BME280_temperature;BME280_humidity;BME280_pressure;Samples;Min_cycle;Max_cycle;Signal;HPM_P1;HPM_P2
2022/10/06 00:01:00;;;;;;;0.20;0.20;;;13.90;99.90;;;;;;5062086;28;20037;-77
2022/10/06 00:03:26;;;;;;;;;;;13.90;99.90;;;;;;5031560;28;20052;-77
2022/10/06 00:05:58;;;;;;;0.20;0.20;;;13.90;99.90;;;;;;5031894;28;20064;-77
2022/10/06 00:08:24;;;;;;;0.13;0.13;;;13.90;99.90;;;;;;5052392;28;20097;-77
2022/10/06 00:10:54;;;;;;;0.20;0.20;;;13.90;99.90;;;;;;5055106;28;20037;-77
2022/10/06 00:13:20;;;;;;;0.20;0.20;;;13.90;99.90;;;;;;5041890;28;20139;-77
2022/10/06 00:15:51;;;;;;;0.20;0.20;;;13.80;99.90;;;;;;5046976;28;20123;-78
2022/10/06 00:18:17;;;;;;;0.10;0.10;;;13.80;99.90;;;;;;5066025;28;20037;-78
2022/10/06 00:20:43;;;;;;;0.20;0.20;;;14.00;99.90;;;;;;5049257;28;20071;-77
2022/10/06 00:23:10;;;;;;;0.10;0.10;;;13.80;99.90;;;;;;5066232;28;20037;-78
2022/10/06 00:25:36;;;;;;;0.10;0.10;;;13.80;99.90;;;;;;5064783;28;21596;-78
2022/10/06 00:28:02;;;;;;;0.10;0.10;;;13.80;99.90;;;;;;5064346;28;20052;-77
2022/10/06 00:30:30;;;;;;;0.20;0.20;;;13.80;99.90;;;;;;5047452;28;20049;-77
2022/10/06 00:33:04;;;;;;;0.20;0.20;;;13.70;99.90;;;;;;5059612;28;20049;-78
2022/10/06 00:35:33;;;;;;;0.13;0.13;;;13.70;99.90;;;;;;5047374;28;20041;-77
2022/10/06 00:38:01;;;;;;;0.20;0.20;;;13.90;99.90;;;;;;5065920;28;20094;-77
2022/10/06 00:40:28;;;;;;;0.20;0.20;;;13.70;99.90;;;;;;5049290;28;20048;-78
2022/10/06 00:43:00;;;;;;;0.20;0.20;;;13.70;99.90;;;;;;5068927;28;20633;-77
2022/10/06 00:45:31;;;;;;;0.20;0.20;;;13.70;99.90;;;;;;5051083;28;20067;-78
2022/10/06 00:48:01;;;;;;;0.20;0.20;;;13.70;99.90;;;;;;5040372;28;20646;-78
2022/10/06 00:50:28;;;;;;;0.20;0.20;;;13.70;99.90;;;;;;5042115;28;20128;-77
2022/10/06 00:52:54;;;;;;;0.20;0.20;;;13.60;99.90;;;;;;5063374;28;20377;-77
2022/10/06 00:55:21;;;;;;;0.20;0.20;;;13.60;99.90;;;;;;5037058;28;20492;-77
2022/10/06 00:57:48;;;;;;;0.20;0.20;;;13.50;99.90;;;;;;5057337;28;20961;-77
2022/10/06 01:00:14;;;;;;;0.20;0.20;;;13.60;99.90;;;;;;5038283;28;20055;-76
2022/10/06 01:02:58;;;;;;;0.20;0.20;;;13.60;99.90;;;;;;5056967;28;20044;-78
2022/10/06 01:05:30;;;;;;;0.10;0.10;;;13.60;99.90;;;;;;5047434;28;20037;-77
2022/10/06 01:07:57;;;;;;;0.20;0.20;;;13.60;99.90;;;;;;5062420;28;20099;-77
2022/10/06 01:10:25;;;;;;;0.13;0.13;;;13.50;99.90;;;;;;5044596;28;20137;-77
2022/10/06 01:12:54;;;;;;;0.20;0.20;;;13.50;99.90;;;;;;5056869;28;20113;-77
2022/10/06 01:15:21;;;;;;;0.10;0.10;;;13.50;99.90;;;;;;5066164;28;20482;-77
2022/10/06 01:18:25;;;;;;;0.13;0.13;;;13.50;99.90;;;;;;5066358;28;20577;-76
2022/10/06 01:21:23;;;;;;;0.17;0.17;;;13.50;99.90;;;;;;5024662;28;20041;-78
2022/10/06 01:23:52;;;;;;;0.20;0.20;;;13.40;99.90;;;;;;5029981;28;20053;-76
2022/10/06 01:26:20;;;;;;;0.20;0.20;;;13.50;99.90;;;;;;5055855;28;20037;-77
2022/10/06 01:28:46;;;;;;;0.20;0.20;;;13.50;99.90;;;;;;5048141;28;21488;-76
2022/10/06 01:31:14;;;;;;;0.20;0.20;;;13.40;99.90;;;;;;5066369;28;20045;-78
2022/10/06 01:33:42;;;;;;;0.10;0.10;;;13.40;99.90;;;;;;5048540;28;20052;-77
2022/10/06 01:36:07;;;;;;;0.10;0.10;;;13.40;99.90;;;;;;5051625;28;20036;-77
2022/10/06 01:38:36;;;;;;;0.20;0.20;;;13.40;99.90;;;;;;5051676;28;20478;-78
2022/10/06 01:41:05;;;;;;;0.17;0.17;;;13.30;99.90;;;;;;5047134;28;20485;-78
2022/10/06 01:43:33;;;;;;;0.20;0.20;;;13.40;99.90;;;;;;5048098;28;20040;-77
2022/10/06 01:45:59;;;;;;;0.20;0.20;;;13.30;99.90;;;;;;5048142;28;20052;-77
2022/10/06 01:48:26;;;;;;;0.20;0.20;;;13.30;99.90;;;;;;5040975;28;20978;-77
2022/10/06 01:50:51;;;;;;;0.20;0.20;;;13.40;99.90;;;;;;5042851;28;20101;-78
2022/10/06 01:53:17;;;;;;;0.20;0.20;;;13.40;99.90;;;;;;5061523;28;20128;-77
2022/10/06 01:55:46;;;;;;;0.20;0.20;;;13.30;99.90;;;;;;5068181;28;20032;-77
2022/10/06 01:58:12;;;;;;;0.20;0.20;;;13.30;99.90;;;;;;5043138;28;20046;-77
2022/10/06 02:00:39;;;;;;;0.20;0.20;;;13.30;99.90;;;;;;5050728;28;20396;-78
2022/10/06 02:03:04;;;;;;;0.20;0.20;;;13.20;99.90;;;;;;5049276;28;20067;-77
2022/10/06 02:05:30;;;;;;;0.20;0.20;;;13.30;99.90;;;;;;5048830;28;20045;-77
2022/10/06 02:07:56;;;;;;;0.20;0.20;;;13.20;99.90;;;;;;5064722;28;20036;-77
2022/10/06 02:10:21;;;;;;;0.20;0.20;;;13.20;99.90;;;;;;5039611;28;20122;-78
2022/10/06 02:12:51;;;;;;;0.20;0.20;;;13.20;99.90;;;;;;5045107;28;20610;-77
2022/10/06 02:15:19;;;;;;;0.20;0.20;;;13.30;99.90;;;;;;5042723;28;20384;-77
2022/10/06 02:17:46;;;;;;;0.20;0.20;;;13.20;99.90;;;;;;5069035;28;20048;-77
2022/10/06 02:20:18;;;;;;;0.20;0.20;;;13.10;99.90;;;;;;5043035;28;20040;-77
2022/10/06 02:22:44;;;;;;;0.10;0.10;;;13.10;99.90;;;;;;5047647;28;20558;-77
2022/10/06 02:25:11;;;;;;;0.10;0.10;;;13.10;99.90;;;;;;5067919;28;20085;-77
2022/10/06 02:27:40;;;;;;;0.20;0.20;;;13.10;99.90;;;;;;5067463;28;20041;-76
2022/10/06 02:30:07;;;;;;;0.17;0.17;;;13.10;99.90;;;;;;5065782;28;20158;-77
2022/10/06 02:32:38;;;;;;;0.20;0.20;;;13.00;99.90;;;;;;5067745;28;20067;-77
2022/10/06 02:35:07;;;;;;;0.20;0.20;;;13.00;99.90;;;;;;5039725;28;20032;-77
2022/10/06 02:37:33;;;;;;;0.20;0.20;;;13.00;99.90;;;;;;5069119;28;20037;-76
2022/10/06 02:39:59;;;;;;;0.20;0.20;;;13.10;99.90;;;;;;5063899;28;20045;-77
2022/10/06 02:42:25;;;;;;;0.20;0.20;;;13.00;99.90;;;;;;5046173;28;20059;-77
2022/10/06 02:44:51;;;;;;;0.20;0.20;;;13.10;99.90;;;;;;5046866;28;20036;-76
2022/10/06 02:47:18;;;;;;;0.10;0.10;;;13.00;99.90;;;;;;5064906;28;20045;-78
2022/10/06 02:49:44;;;;;;;0.20;0.20;;;13.10;99.90;;;;;;5048543;28;20059;-77
2022/10/06 02:52:10;;;;;;;0.20;0.20;;;13.00;99.90;;;;;;5066593;28;20040;-78
2022/10/06 02:54:36;;;;;;;0.20;0.20;;;13.00;99.90;;;;;;5047289;28;20049;-77
2022/10/06 02:57:01;;;;;;;0.20;0.20;;;13.00;99.90;;;;;;5064264;28;20070;-75
2022/10/06 02:59:27;;;;;;;0.20;0.20;;;13.00;99.90;;;;;;5054544;28;20548;-77
2022/10/06 03:01:53;;;;;;;0.20;0.20;;;13.00;99.90;;;;;;5045182;28;20037;-78
2022/10/06 03:04:19;;;;;;;0.20;0.20;;;13.00;99.90;;;;;;5064589;28;20041;-77
2022/10/06 03:06:48;;;;;;;0.20;0.20;;;13.00;99.90;;;;;;5045038;28;20035;-77
2022/10/06 03:09:13;;;;;;;0.13;0.13;;;13.00;99.90;;;;;;5066441;28;20488;-77
2022/10/06 03:11:41;;;;;;;0.10;0.10;;;12.90;99.90;;;;;;5067935;28;20048;-77
2022/10/06 03:14:07;;;;;;;0.10;0.10;;;12.90;99.90;;;;;;5046192;28;20123;-76
2022/10/06 03:16:39;;;;;;;0.20;0.20;;;12.90;99.90;;;;;;5063782;28;20181;-76
2022/10/06 03:19:06;;;;;;;0.10;0.10;;;12.90;99.90;;;;;;5043514;28;20369;-77
2022/10/06 03:21:38;;;;;;;0.10;0.10;;;12.90;99.90;;;;;;5048505;28;20506;-77
2022/10/06 03:24:04;;;;;;;0.20;0.20;;;12.90;99.90;;;;;;5066251;28;20127;-77
2022/10/06 03:26:35;;;;;;;0.13;0.13;;;12.90;99.90;;;;;;5065516;28;20040;-76
2022/10/06 03:29:01;;;;;;;0.20;0.20;;;12.90;99.90;;;;;;5067981;28;20043;-76
2022/10/06 03:31:27;;;;;;;0.20;0.20;;;12.90;99.90;;;;;;5048971;28;20040;-77
2022/10/06 03:33:56;;;;;;;0.20;0.20;;;12.80;99.90;;;;;;5048266;28;20049;-76
2022/10/06 03:36:25;;;;;;;0.20;0.20;;;12.80;99.90;;;;;;5046556;28;20381;-76
2022/10/06 03:38:51;;;;;;;0.20;0.20;;;12.80;99.90;;;;;;5045994;28;20044;-76
2022/10/06 03:41:24;;;;;;;0.20;0.20;;;12.80;99.90;;;;;;5058725;28;20119;-76
2022/10/06 03:43:51;;;;;;;0.15;0.15;;;12.80;99.90;;;;;;5054151;28;20067;-76
2022/10/06 03:46:19;;;;;;;0.20;0.20;;;12.70;99.90;;;;;;5046204;28;20048;-76
2022/10/06 03:48:45;;;;;;;0.10;0.10;;;12.70;99.90;;;;;;5061958;28;20040;-76
2022/10/06 03:51:13;;;;;;;0.10;0.10;;;12.70;99.90;;;;;;5064446;28;20090;-76
2022/10/06 03:53:39;;;;;;;0.20;0.20;;;12.70;99.90;;;;;;5039004;28;20420;-76
2022/10/06 03:56:28;;;;;;;0.20;0.20;;;12.70;99.90;;;;;;5054031;28;20079;-77
2022/10/06 03:58:56;;;;;;;0.20;0.20;;;12.80;99.90;;;;;;5037321;28;20075;-77
2022/10/06 04:01:28;;;;;;;0.20;0.20;;;12.60;99.90;;;;;;5066939;28;20447;-76
2022/10/06 04:03:58;;;;;;;0.20;0.20;;;12.60;99.90;;;;;;5065441;28;20128;-76
2022/10/06 04:06:25;;;;;;;0.13;0.13;;;12.60;99.90;;;;;;5047702;28;20044;-77
2022/10/06 04:08:54;;;;;;;0.20;0.20;;;12.60;99.90;;;;;;5044463;28;20061;-76
2022/10/06 04:11:22;;;;;;;0.13;0.13;;;12.60;99.90;;;;;;5053970;28;20036;-76
2022/10/06 04:13:55;;;;;;;0.10;0.10;;;12.60;99.90;;;;;;5051870;28;20102;-75
2022/10/06 04:16:23;;;;;;;0.10;0.10;;;12.60;99.90;;;;;;5036399;28;20094;-76
2022/10/06 04:18:52;;;;;;;0.20;0.20;;;12.60;99.90;;;;;;5041180;28;20078;-76
2022/10/06 04:21:24;;;;;;;0.10;0.10;;;12.60;99.90;;;;;;5065351;28;20040;-76
2022/10/06 04:23:59;;;;;;;0.20;0.20;;;12.60;99.90;;;;;;5046882;28;20049;-76
2022/10/06 04:26:30;;;;;;;0.20;0.20;;;12.50;99.90;;;;;;5055260;28;20082;-76
2022/10/06 04:28:56;;;;;;;0.15;0.15;;;12.40;99.90;;;;;;5062239;28;20036;-77
2022/10/06 04:31:31;;;;;;;0.10;0.10;;;12.50;99.90;;;;;;5062293;28;20086;-77
2022/10/06 04:33:59;;;;;;;0.20;0.20;;;12.40;99.90;;;;;;5037939;28;20366;-76
2022/10/06 04:36:31;;;;;;;0.20;0.20;;;12.50;99.90;;;;;;5055246;28;20053;-74
2022/10/06 04:38:57;;;;;;;;;;;12.30;99.90;;;;;;5060473;28;20044;-76
2022/10/06 04:41:25;;;;;;;0.10;0.10;;;12.30;99.90;;;;;;5040448;28;19935;-76
2022/10/06 04:43:52;;;;;;;0.20;0.20;;;12.20;99.90;;;;;;5046169;28;20049;-76
2022/10/06 04:46:19;;;;;;;0.20;0.20;;;12.30;99.90;;;;;;5047109;28;20040;-76
2022/10/06 04:48:52;;;;;;;0.10;0.10;;;12.30;99.90;;;;;;5034416;28;20044;-76
2022/10/06 04:51:20;;;;;;;0.10;0.10;;;12.20;99.90;;;;;;5038633;28;20157;-76
2022/10/06 04:53:46;;;;;;;0.20;0.20;;;12.20;99.90;;;;;;5037361;28;20050;-77
2022/10/06 04:58:42;;;;;;;0.20;0.20;;;12.20;99.90;;;;;;4976611;28;20495;-76
2022/10/06 05:01:15;;;;;;;0.20;0.20;;;12.20;99.90;;;;;;4978041;28;20046;-77
2022/10/06 05:03:44;;;;;;;0.20;0.20;;;12.10;99.90;;;;;;4984052;28;20093;-75
2022/10/06 05:06:11;;;;;;;0.10;0.10;;;12.10;99.90;;;;;;4977986;28;20042;-76
2022/10/06 05:08:37;;;;;;;0.20;0.20;;;12.10;99.90;;;;;;4982308;28;20050;-75
2022/10/06 05:11:07;;;;;;;0.10;0.10;;;12.10;99.90;;;;;;4976986;28;20046;-76
2022/10/06 05:13:32;;;;;;;0.20;0.20;;;12.10;99.90;;;;;;4975734;28;20383;-76
2022/10/06 05:16:18;;;;;;;0.20;0.20;;;12.00;99.90;;;;;;4977391;28;20107;-76
2022/10/06 05:18:44;;;;;;;0.20;0.20;;;12.00;99.90;;;;;;4996655;28;20062;-77
2022/10/06 05:21:12;;;;;;;0.20;0.20;;;12.00;99.90;;;;;;4986477;28;20046;-76
2022/10/06 05:23:40;;;;;;;0.20;0.20;;;12.00;99.90;;;;;;4988251;28;20567;-76
2022/10/06 05:26:07;;;;;;;0.20;0.20;;;12.00;99.90;;;;;;4987780;28;20082;-76
2022/10/06 05:28:35;;;;;;;0.10;0.10;;;12.00;99.90;;;;;;5013696;28;20725;-76
2022/10/06 05:31:12;;;;;;;0.20;0.20;;;12.00;99.90;;;;;;4983409;28;20103;-76
2022/10/06 05:33:50;;;;;;;0.20;0.20;;;11.90;99.90;;;;;;4988487;28;20387;-76
2022/10/06 05:36:18;;;;;;;0.20;0.20;;;11.90;99.90;;;;;;4984051;28;20061;-77
2022/10/06 05:38:44;;;;;;;0.20;0.20;;;11.90;99.90;;;;;;4990787;28;20050;-77
2022/10/06 05:41:25;;;;;;;0.20;0.20;;;11.90;99.90;;;;;;4990153;28;20128;-77
2022/10/06 05:43:52;;;;;;;0.10;0.10;;;11.90;99.90;;;;;;4982811;28;20618;-77
2022/10/06 05:46:27;;;;;;;0.20;0.20;;;11.90;99.90;;;;;;4988665;28;20069;-76
2022/10/06 05:49:01;;;;;;;0.20;0.20;;;11.90;99.90;;;;;;4987931;28;20047;-77
2022/10/06 05:51:29;;;;;;;0.10;0.10;;;11.80;99.90;;;;;;4987203;28;20057;-77
2022/10/06 05:53:58;;;;;;;0.20;0.20;;;11.90;99.90;;;;;;4990774;28;20047;-77
2022/10/06 05:56:33;;;;;;;0.20;0.20;;;11.80;99.90;;;;;;4991149;28;20046;-77
2022/10/06 05:58:59;;;;;;;0.10;0.10;;;11.80;99.90;;;;;;4976472;28;20050;-77
2022/10/06 06:01:25;;;;;;;0.20;0.20;;;11.80;99.90;;;;;;4951222;29;20133;-77
2022/10/06 06:04:02;;;;;;;0.15;0.15;;;11.80;99.90;;;;;;4954041;29;20141;-77
2022/10/06 06:06:32;;;;;;;0.20;0.20;;;11.80;99.90;;;;;;4941940;28;20054;-77
2022/10/06 06:09:06;;;;;;;0.20;0.20;;;11.80;99.90;;;;;;4973660;28;20121;-77
2022/10/06 06:11:33;;;;;;;0.10;0.10;;;11.80;99.90;;;;;;4957692;28;20047;-77
2022/10/06 06:14:10;;;;;;;0.10;0.10;;;11.80;99.90;;;;;;4955506;28;20043;-75
2022/10/06 06:16:38;;;;;;;0.20;0.20;;;12.40;99.90;;;;;;4993329;28;20040;-75
2022/10/06 06:19:08;;;;;;;0.20;0.20;;;11.80;99.90;;;;;;4971859;28;20050;-77
2022/10/06 06:21:34;;;;;;;0.10;0.10;;;11.90;99.90;;;;;;4949986;29;20530;-77
2022/10/06 06:23:59;;;;;;;0.17;0.17;;;11.80;99.90;;;;;;4971540;28;20070;-77
2022/10/06 06:26:27;;;;;;;0.20;0.20;;;11.90;99.90;;;;;;4947955;28;20501;-78
2022/10/06 06:28:59;;;;;;;0.17;0.17;;;11.90;99.90;;;;;;4985943;28;20052;-77
2022/10/06 06:31:26;;;;;;;;;;;11.90;99.90;;;;;;4941403;28;20114;-78
2022/10/06 06:34:13;;;;;;;0.10;0.10;;;11.90;99.90;;;;;;4971322;28;19925;-77
2022/10/06 06:36:43;;;;;;;0.17;0.17;;;11.90;99.90;;;;;;4950387;28;20148;-79
2022/10/06 06:39:11;;;;;;;0.13;0.13;;;11.90;99.90;;;;;;4962239;28;20050;-78
2022/10/06 06:41:43;;;;;;;0.13;0.13;;;12.00;99.90;;;;;;4948839;28;20071;-77
2022/10/06 06:44:12;;;;;;;0.20;0.20;;;12.00;99.90;;;;;;4941387;28;20123;-77
2022/10/06 06:46:41;;;;;;;0.20;0.20;;;12.10;99.90;;;;;;4970219;28;20550;-79
2022/10/06 06:49:08;;;;;;;0.20;0.20;;;12.00;99.90;;;;;;4965265;28;20061;-78
2022/10/06 06:51:36;;;;;;;0.20;0.20;;;12.10;99.90;;;;;;4952972;28;20085;-79
2022/10/06 06:54:02;;;;;;;0.10;0.10;;;12.10;99.90;;;;;;4939180;28;20491;-78
2022/10/06 06:56:33;;;;;;;0.10;0.10;;;12.20;99.90;;;;;;4955931;28;20335;-78
2022/10/06 06:59:00;;;;;;;0.20;0.20;;;12.30;99.90;;;;;;4975309;28;20051;-78
2022/10/06 07:01:26;;;;;;;0.10;0.10;;;12.30;99.90;;;;;;4948041;28;20072;-79
2022/10/06 07:03:54;;;;;;;0.20;0.20;;;12.30;99.90;;;;;;4959714;28;20054;-79
2022/10/06 07:06:21;;;;;;;0.20;0.20;;;12.40;99.90;;;;;;4935527;29;20047;-78
2022/10/06 07:08:48;;;;;;;0.20;0.20;;;12.40;99.90;;;;;;4963374;28;20069;-77
2022/10/06 07:11:15;;;;;;;0.20;0.20;;;12.40;99.90;;;;;;4958506;28;20104;-78
2022/10/06 07:13:42;;;;;;;0.20;0.20;;;12.50;99.90;;;;;;4952493;28;20052;-79
2022/10/06 07:27:24;;;;;;;0.10;0.10;;;12.70;99.90;;;;;;4969421;28;20518;-78
2022/10/06 07:29:53;;;;;;;0.20;0.20;;;12.70;99.90;;;;;;4951196;28;20051;-78
2022/10/06 07:32:23;;;;;;;0.10;0.10;;;12.80;99.90;;;;;;4971131;28;20055;-78
2022/10/06 07:34:49;;;;;;;0.20;0.20;;;12.80;99.90;;;;;;4952993;28;20114;-78
2022/10/06 07:37:16;;;;;;;0.20;0.20;;;12.80;99.90;;;;;;4951392;28;20057;-77
2022/10/06 07:39:43;;;;;;;0.10;0.10;;;12.80;99.90;;;;;;4953421;28;20039;-79
2022/10/06 07:42:12;;;;;;;0.10;0.10;;;12.90;99.90;;;;;;4953830;28;20079;-78
2022/10/06 07:44:41;;;;;;;0.10;0.10;;;12.90;99.90;;;;;;4952092;28;20117;-78
2022/10/06 07:47:07;;;;;;;0.20;0.20;;;13.00;99.90;;;;;;4969994;28;20046;-78
2022/10/06 07:49:33;;;;;;;0.20;0.20;;;13.00;99.90;;;;;;4963023;28;20514;-78
2022/10/06 07:51:58;;;;;;;0.20;0.20;;;13.00;99.90;;;;;;4973195;28;20043;-79
2022/10/06 07:54:25;;;;;;;0.20;0.20;;;13.20;99.90;;;;;;4955433;28;20083;-78
2022/10/06 07:56:54;;;;;;;0.10;0.10;;;13.10;99.90;;;;;;4990423;28;20054;-79
2022/10/06 07:59:20;;;;;;;0.20;0.20;;;13.20;99.90;;;;;;4962187;28;20056;-79
2022/10/06 08:01:46;;;;;;;0.20;0.20;;;13.20;99.90;;;;;;4952877;28;20046;-78
2022/10/06 08:04:12;;;;;;;0.20;0.20;;;13.30;99.90;;;;;;4973324;28;20042;-77
2022/10/06 08:06:38;;;;;;;0.20;0.20;;;13.30;99.90;;;;;;4954676;28;20050;-80
2022/10/06 08:09:04;;;;;;;0.20;0.20;;;13.30;99.90;;;;;;4968737;28;20038;-79
2022/10/06 08:11:30;;;;;;;0.20;0.20;;;13.40;99.90;;;;;;4971102;28;20470;-78
2022/10/06 08:13:56;;;;;;;0.15;0.15;;;13.40;99.90;;;;;;4955463;28;20046;-79
2022/10/06 08:16:28;;;;;;;0.20;0.20;;;13.40;99.90;;;;;;4971921;28;20039;-78
2022/10/06 08:18:56;;;;;;;0.20;0.20;;;13.50;99.90;;;;;;4954633;28;20059;-77
2022/10/06 08:21:28;;;;;;;0.20;0.20;;;13.60;99.90;;;;;;4965023;28;20406;-78
2022/10/06 08:23:55;;;;;;;0.20;0.20;;;13.60;99.90;;;;;;4952742;28;20043;-78
2022/10/06 08:26:22;;;;;;;0.20;0.20;;;13.70;99.90;;;;;;4974009;28;20474;-79
2022/10/06 08:28:51;;;;;;;0.20;0.20;;;13.70;99.90;;;;;;4974385;28;20074;-78
2022/10/06 08:31:19;;;;;;;0.20;0.20;;;13.70;99.90;;;;;;4951940;28;20126;-78
2022/10/06 08:33:46;;;;;;;0.20;0.20;;;13.80;99.90;;;;;;4968297;28;20093;-79
2022/10/06 08:36:15;;;;;;;0.20;0.20;;;13.90;99.90;;;;;;4955134;28;20054;-79
2022/10/06 08:38:42;;;;;;;0.20;0.20;;;13.90;99.90;;;;;;4955835;28;20042;-80
2022/10/06 08:41:37;;;;;;;0.20;0.20;;;14.00;99.90;;;;;;4973506;28;20498;-79
2022/10/06 08:44:17;;;;;;;0.10;0.10;;;14.00;99.90;;;;;;4954756;28;20049;-79
2022/10/06 08:46:59;;;;;;;0.20;0.20;;;14.00;99.90;;;;;;4968971;28;20062;-80
2022/10/06 08:49:27;;;;;;;0.10;0.10;;;14.10;99.90;;;;;;4955781;28;20050;-80
2022/10/06 08:52:06;;;;;;;0.10;0.10;;;14.10;99.90;;;;;;4958350;28;20046;-80
2022/10/06 08:54:47;;;;;;;0.10;0.10;;;14.20;99.90;;;;;;4968687;28;20058;-79
2022/10/06 08:57:20;;;;;;;0.20;0.20;;;14.20;99.90;;;;;;4954315;28;20055;-79
2022/10/06 08:59:52;;;;;;;0.20;0.20;;;14.20;99.90;;;;;;4937266;29;20399;-80
2022/10/06 09:02:29;;;;;;;0.20;0.20;;;14.30;99.90;;;;;;4948091;28;20050;-80
2022/10/06 09:05:03;;;;;;;0.20;0.20;;;14.40;99.90;;;;;;4964614;28;20050;-81
2022/10/06 09:07:43;;;;;;;0.17;0.17;;;14.40;99.90;;;;;;4942152;29;20078;-81
2022/10/06 09:10:30;;;;;;;0.10;0.10;;;14.40;99.90;;;;;;4952620;29;20082;-79
2022/10/06 09:13:08;;;;;;;0.20;0.20;;;14.50;99.90;;;;;;4955610;28;20047;-80
2022/10/06 09:15:48;;;;;;;0.20;0.20;;;14.60;99.90;;;;;;4970689;28;20039;-81
2022/10/06 09:18:37;;;;;;;0.10;0.10;;;14.60;99.90;;;;;;4944274;28;20059;-81
2022/10/06 09:21:12;;;;;;;0.20;0.20;;;14.70;99.90;;;;;;4957227;28;20051;-81
2022/10/06 09:23:47;;;;;;;0.10;0.10;;;14.70;99.90;;;;;;4948629;28;20565;-80
2022/10/06 09:26:28;;;;;;;0.20;0.20;;;14.80;99.90;;;;;;4972940;28;20042;-80
2022/10/06 09:28:55;;;;;;;0.10;0.10;;;14.90;99.90;;;;;;4969913;28;20109;-80
2022/10/06 09:31:24;;;;;;;0.20;0.20;;;14.90;99.90;;;;;;4970942;28;20046;-81
2022/10/06 09:33:54;;;;;;;0.15;0.15;;;15.00;99.90;;;;;;4949851;29;20071;-79
2022/10/06 09:36:20;;;;;;;0.20;0.20;;;15.00;99.90;;;;;;4958775;28;20038;-80
2022/10/06 09:38:48;;;;;;;0.15;0.15;;;15.10;99.90;;;;;;4954740;28;20550;-80
2022/10/06 09:41:15;;;;;;;0.10;0.10;;;15.10;99.90;;;;;;4973140;28;20558;-80
2022/10/06 09:43:51;;;;;;;0.20;0.20;;;15.20;99.90;;;;;;4968685;28;20047;-78
2022/10/06 09:46:29;;;;;;;0.10;0.10;;;15.20;99.90;;;;;;4968328;28;20043;-78
2022/10/06 09:49:15;;;;;;;0.20;0.20;;;15.30;99.90;;;;;;4938572;28;20087;-78
2022/10/06 09:51:56;;;;;;;0.10;0.10;;;15.30;99.90;;;;;;4979883;28;20042;-79
2022/10/06 09:54:23;;;;;;;0.10;0.10;;;15.40;99.90;;;;;;4947491;28;20122;-78
2022/10/06 09:56:49;;;;;;;0.20;0.20;;;15.50;99.90;;;;;;4965266;28;20065;-79
2022/10/06 09:59:21;;;;;;;0.20;0.20;;;15.40;99.90;;;;;;5004981;28;20054;-78
2022/10/06 10:01:54;;;;;;;0.10;0.10;;;15.50;99.90;;;;;;4991072;28;20402;-80
2022/10/06 10:04:25;;;;;;;0.20;0.20;;;15.50;99.90;;;;;;4985498;28;20046;-81
2022/10/06 10:06:52;;;;;;;0.20;0.20;;;15.50;99.90;;;;;;4986732;28;20108;-80
2022/10/06 10:09:28;;;;;;;0.20;0.20;;;15.50;99.90;;;;;;4983638;28;20078;-78
2022/10/06 10:12:24;;;;;;;0.20;0.20;;;15.40;99.90;;;;;;4991141;28;20070;-80
2022/10/06 10:15:00;;;;;;;0.13;0.13;;;15.40;99.90;;;;;;4986974;28;20046;-80
2022/10/06 10:17:31;;;;;;;0.20;0.20;;;15.50;99.90;;;;;;4977742;28;20073;-80
2022/10/06 10:19:57;;;;;;;0.10;0.10;;;15.40;99.90;;;;;;4984925;28;20402;-79
2022/10/06 10:22:31;;;;;;;0.10;0.10;;;15.40;99.90;;;;;;4992091;28;20445;-80
2022/10/06 10:25:24;;;;;;;0.20;0.20;;;15.40;99.90;;;;;;4984860;28;20093;-78
2022/10/06 10:27:59;;;;;;;0.20;0.20;;;15.50;99.90;;;;;;4977257;28;20053;-79
2022/10/06 10:30:27;;;;;;;0.10;0.10;;;15.70;99.90;;;;;;4990001;28;20403;-79
2022/10/06 10:33:05;;;;;;;0.10;0.10;;;15.70;99.90;;;;;;4985809;28;20056;-79
2022/10/06 10:35:36;;;;;;;0.20;0.20;;;15.70;99.90;;;;;;4988239;28;20200;-78
2022/10/06 10:38:23;;;;;;;0.20;0.20;;;15.90;99.90;;;;;;4988660;28;20038;-79
2022/10/06 10:40:52;;;;;;;0.10;0.10;;;15.90;99.90;;;;;;4989355;28;20105;-79
2022/10/06 10:43:34;;;;;;;0.20;0.20;;;15.90;99.90;;;;;;4978523;28;20039;-79
2022/10/06 10:46:11;;;;;;;0.10;0.10;;;16.00;99.90;;;;;;4983782;28;20061;-79
2022/10/06 10:48:55;;;;;;;0.20;0.20;;;16.20;99.90;;;;;;4986898;28;20556;-77
2022/10/06 10:51:31;;;;;;;0.20;0.20;;;16.20;99.90;;;;;;4989599;28;20603;-78
2022/10/06 10:54:07;;;;;;;0.20;0.20;;;16.30;99.90;;;;;;4976793;28;20181;-79
2022/10/06 10:56:33;;;;;;;0.20;0.20;;;16.30;99.90;;;;;;4981200;28;20094;-77
2022/10/06 10:59:07;;;;;;;0.20;0.20;;;16.40;99.90;;;;;;4964386;28;20095;-80
2022/10/06 11:01:40;;;;;;;0.10;0.10;;;16.50;99.90;;;;;;4959235;28;20039;-79
2022/10/06 11:04:11;;;;;;;0.20;0.20;;;16.60;99.90;;;;;;4961333;28;20221;-78
2022/10/06 11:07:14;;;;;;;0.20;0.20;;;16.60;99.90;;;;;;4963369;28;20413;-78
2022/10/06 11:09:59;;;;;;;0.13;0.13;;;16.80;99.90;;;;;;4921317;28;20062;-79
2022/10/06 11:13:08;;;;;;;0.20;0.20;;;16.90;99.90;;;;;;4946679;28;20481;-80
2022/10/06 11:16:04;;;;;;;0.20;0.20;;;16.90;99.90;;;;;;4949271;28;20058;-80
2022/10/06 11:18:49;;;;;;;0.20;0.20;;;17.00;99.90;;;;;;4953325;28;20042;-80
2022/10/06 11:21:30;;;;;;;0.20;0.20;;;16.90;99.90;;;;;;4967596;28;20046;-80
2022/10/06 11:24:13;;;;;;;0.20;0.20;;;17.10;99.90;;;;;;4963077;28;20049;-80
2022/10/06 11:26:57;;;;;;;0.15;0.15;;;17.10;99.90;;;;;;4947718;28;20043;-81
2022/10/06 11:30:04;;;;;;;0.20;0.20;;;17.10;99.90;;;;;;4938446;28;20039;-80
2022/10/06 11:33:00;;;;;;;0.20;0.20;;;17.20;99.90;;;;;;4945419;28;20214;-79
2022/10/06 11:35:33;;;;;;;0.20;0.20;;;17.40;99.90;;;;;;4967827;28;20057;-79
2022/10/06 11:38:51;;;;;;;0.20;0.20;;;17.50;99.90;;;;;;4987316;28;20049;-80
2022/10/06 11:41:30;;;;;;;0.20;0.20;;;17.60;99.90;;;;;;4857013;29;20508;-78
2022/10/06 11:44:12;;;;;;;0.20;0.20;;;17.70;99.90;;;;;;4907524;28;20057;-79
2022/10/06 11:46:42;;;;;;;0.10;0.10;;;17.70;99.90;;;;;;4934691;29;20098;-80
2022/10/06 11:49:29;;;;;;;0.20;0.20;;;17.80;99.90;;;;;;4964167;28;20055;-78
2022/10/06 11:52:09;;;;;;;0.20;0.20;;;18.00;99.90;;;;;;4969086;28;20403;-79
2022/10/06 11:54:44;;;;;;;0.10;0.10;;;18.20;99.90;;;;;;4950471;29;20397;-78
2022/10/06 11:57:22;;;;;;;0.20;0.20;;;18.40;99.90;;;;;;4965375;28;20055;-79
2022/10/06 11:59:50;;;;;;;0.13;0.13;;;18.60;99.90;;;;;;4969304;28;20054;-79
2022/10/06 12:02:35;;;;;;;0.20;0.20;;;18.80;99.80;;;;;;4951149;28;20066;-80
2022/10/06 12:05:13;;;;;;;0.20;0.20;;;19.00;99.40;;;;;;4964647;28;20085;-79
2022/10/06 12:07:51;;;;;;;0.20;0.20;;;19.30;98.90;;;;;;4961013;28;20093;-78
2022/10/06 12:10:26;;;;;;;0.20;0.20;;;19.40;99.10;;;;;;4961152;28;20145;-80
2022/10/06 12:13:06;;;;;;;0.13;0.13;;;19.50;98.00;;;;;;4949093;28;20043;-79
2022/10/06 12:16:02;;;;;;;0.20;0.20;;;19.60;98.20;;;;;;4964400;28;20445;-80
2022/10/06 12:18:46;;;;;;;0.20;0.20;;;19.70;97.60;;;;;;4946666;28;20058;-79
2022/10/06 12:21:43;;;;;;;0.20;0.20;;;19.70;97.10;;;;;;4965332;28;20051;-80
2022/10/06 12:24:15;;;;;;;0.20;0.20;;;19.70;97.00;;;;;;4972683;28;20095;-81
2022/10/06 12:27:19;;;;;;;0.20;0.20;;;19.90;97.70;;;;;;4956691;28;20121;-78
2022/10/06 12:29:56;;;;;;;0.20;0.20;;;20.10;97.90;;;;;;4956104;28;20130;-79
2022/10/06 12:32:47;;;;;;;0.20;0.20;;;20.30;98.50;;;;;;4965315;28;20035;-79
2022/10/06 12:35:25;;;;;;;0.20;0.20;;;20.40;98.50;;;;;;4966190;28;20601;-79
2022/10/06 12:38:03;;;;;;;0.20;0.20;;;20.60;99.20;;;;;;4970479;28;20128;-77
2022/10/06 12:40:40;;;;;;;0.20;0.20;;;20.90;98.20;;;;;;4962763;28;20491;-79
2022/10/06 12:43:22;;;;;;;0.20;0.20;;;21.00;97.80;;;;;;4937607;29;20091;-78
2022/10/06 12:46:14;;;;;;;0.15;0.15;;;20.90;97.60;;;;;;4963911;28;20685;-78
2022/10/06 12:48:56;;;;;;;0.20;0.20;;;21.20;97.70;;;;;;4972332;28;20046;-78
2022/10/06 12:51:31;;;;;;;0.20;0.20;;;21.50;97.00;;;;;;4971261;28;20126;-79
2022/10/06 12:54:34;;;;;;;0.20;0.20;;;21.50;96.40;;;;;;4940526;29;20514;-78
2022/10/06 12:57:12;;;;;;;0.20;0.20;;;21.40;96.30;;;;;;4950825;28;20201;-79
2022/10/06 12:59:39;;;;;;;0.20;0.20;;;21.30;96.00;;;;;;4992410;28;20050;-78
2022/10/06 13:02:19;;;;;;;0.10;0.10;;;21.10;96.50;;;;;;4992558;28;20585;-78
2022/10/06 13:04:53;;;;;;;0.20;0.20;;;21.40;96.20;;;;;;4982508;28;20255;-79
2022/10/06 13:07:27;;;;;;;0.20;0.20;;;22.10;97.50;;;;;;4978810;28;20046;-79
2022/10/06 13:10:12;;;;;;;1.95;0.40;;;23.30;96.80;;;;;;4977503;28;20049;-80
2022/10/06 13:12:38;;;;;;;0.20;0.20;;;;;;;;;;4990689;28;20065;-79
2022/10/06 13:15:22;;;;;;;0.20;0.20;;;;;;;;;;4992417;28;20050;-81
2022/10/06 13:17:56;;;;;;;0.20;0.20;;;;;;;;;;5005834;28;20052;-79
2022/10/06 13:20:41;;;;;;;0.20;0.20;;;;;;;;;;5003534;28;20040;-80
2022/10/06 13:23:26;;;;;;;0.20;0.20;;;;;;;;;;4999113;28;20050;-79
2022/10/06 13:26:03;;;;;;;0.20;0.20;;;;;;;;;;5013323;28;20038;-80
2022/10/06 13:28:35;;;;;;;0.20;0.20;;;;;;;;;;5004002;28;20053;-79
2022/10/06 13:31:02;;;;;;;0.20;0.20;;;;;;;;;;4991808;28;20046;-80